Amherst, Wisconsin
Current Conditions -  °F | °C
As of 12:35 PM on Sunday 21 Dec 2014 (Local Time) from KSTE Reporting Station
Haze Haze  
Wind Chill: 24°   Ceiling: 500
Heat Index: 32°   Visibility: 2mi
Dew Point: 31°   Wind: 9mph
Humidity: 97%   Direction: 170°S
Pressure: 29.97"   Gusts: NA
Location:  44.45°N, 89.28°W
Report Text: KSTE 211835Z AUTO 17008KT 2SM BR OVC005 00/00 A2997 RMK AO2 T10011005
Loading
Personal Weather Stations






























Interactive Weather Map New forecast layout! Learn more

10-Day Weather Forecast

Advertisements
Track Severe Weather on mobile